sensor_id;sensor_type;location;lat;lon;timestamp;P1;durP1;ratioP1;P2;durP2;ratioP2
20181;SDS011;10250;50.756;6.172;2023-02-13T00:01:53;15.03;;;4.87;;
20181;SDS011;10250;50.756;6.172;2023-02-13T00:03:54;13.47;;;3.67;;
20181;SDS011;10250;50.756;6.172;2023-02-13T00:05:55;13.43;;;3.77;;
20181;SDS011;10250;50.756;6.172;2023-02-13T00:07:56;14.63;;;3.90;;
20181;SDS011;10250;50.756;6.172;2023-02-13T00:09:57;12.67;;;3.30;;
20181;SDS011;10250;50.756;6.172;2023-02-13T00:11:58;15.73;;;3.80;;
20181;SDS011;10250;50.756;6.172;2023-02-13T00:13:59;16.03;;;4.20;;
20181;SDS011;10250;50.756;6.172;2023-02-13T00:16:01;12.93;;;3.90;;
20181;SDS011;10250;50.756;6.172;2023-02-13T00:18:02;14.37;;;3.67;;
20181;SDS011;10250;50.756;6.172;2023-02-13T00:20:04;13.30;;;3.40;;
20181;SDS011;10250;50.756;6.172;2023-02-13T00:22:05;12.37;;;3.50;;
20181;SDS011;10250;50.756;6.172;2023-02-13T00:24:06;13.33;;;3.70;;
20181;SDS011;10250;50.756;6.172;2023-02-13T00:26:09;13.07;;;3.20;;
20181;SDS011;10250;50.756;6.172;2023-02-13T00:28:10;13.53;;;3.80;;
20181;SDS011;10250;50.756;6.172;2023-02-13T00:30:11;13.83;;;3.63;;
20181;SDS011;10250;50.756;6.172;2023-02-13T00:32:13;13.97;;;3.53;;
20181;SDS011;10250;50.756;6.172;2023-02-13T00:34:14;14.40;;;3.77;;
20181;SDS011;10250;50.756;6.172;2023-02-13T00:36:16;14.77;;;3.93;;
20181;SDS011;10250;50.756;6.172;2023-02-13T00:38:17;15.50;;;4.50;;
20181;SDS011;10250;50.756;6.172;2023-02-13T00:40:18;15.90;;;4.17;;
20181;SDS011;10250;50.756;6.172;2023-02-13T00:42:19;12.93;;;3.47;;
20181;SDS011;10250;50.756;6.172;2023-02-13T00:44:23;15.00;;;3.50;;
20181;SDS011;10250;50.756;6.172;2023-02-13T00:46:23;14.83;;;4.10;;
20181;SDS011;10250;50.756;6.172;2023-02-13T00:48:25;14.43;;;4.20;;
20181;SDS011;10250;50.756;6.172;2023-02-13T00:50:26;12.90;;;3.67;;
20181;SDS011;10250;50.756;6.172;2023-02-13T00:52:27;19.83;;;4.47;;
20181;SDS011;10250;50.756;6.172;2023-02-13T00:54:28;14.43;;;4.10;;
20181;SDS011;10250;50.756;6.172;2023-02-13T00:56:29;16.83;;;4.77;;
20181;SDS011;10250;50.756;6.172;2023-02-13T00:58:30;13.40;;;3.53;;
20181;SDS011;10250;50.756;6.172;2023-02-13T01:00:31;16.20;;;3.50;;
20181;SDS011;10250;50.756;6.172;2023-02-13T01:02:32;13.93;;;3.87;;
20181;SDS011;10250;50.756;6.172;2023-02-13T01:04:35;12.53;;;3.90;;
20181;SDS011;10250;50.756;6.172;2023-02-13T01:06:36;15.33;;;4.17;;
20181;SDS011;10250;50.756;6.172;2023-02-13T01:08:37;17.07;;;4.43;;
20181;SDS011;10250;50.756;6.172;2023-02-13T01:10:39;12.50;;;3.50;;
20181;SDS011;10250;50.756;6.172;2023-02-13T01:12:40;16.33;;;4.23;;
20181;SDS011;10250;50.756;6.172;2023-02-13T01:14:41;15.67;;;4.13;;
20181;SDS011;10250;50.756;6.172;2023-02-13T01:16:42;13.93;;;3.57;;
20181;SDS011;10250;50.756;6.172;2023-02-13T01:18:43;14.07;;;3.73;;
20181;SDS011;10250;50.756;6.172;2023-02-13T01:20:45;13.10;;;3.80;;
20181;SDS011;10250;50.756;6.172;2023-02-13T01:22:46;12.40;;;3.40;;
20181;SDS011;10250;50.756;6.172;2023-02-13T01:24:47;15.90;;;3.77;;
20181;SDS011;10250;50.756;6.172;2023-02-13T01:26:48;13.03;;;3.50;;
20181;SDS011;10250;50.756;6.172;2023-02-13T01:28:52;11.90;;;3.53;;
20181;SDS011;10250;50.756;6.172;2023-02-13T01:30:54;13.83;;;4.07;;
20181;SDS011;10250;50.756;6.172;2023-02-13T01:32:55;14.30;;;3.70;;
20181;SDS011;10250;50.756;6.172;2023-02-13T01:34:56;13.27;;;3.50;;
20181;SDS011;10250;50.756;6.172;2023-02-13T01:36:57;13.73;;;4.17;;
20181;SDS011;10250;50.756;6.172;2023-02-13T01:38:58;14.90;;;3.77;;
20181;SDS011;10250;50.756;6.172;2023-02-13T01:40:59;14.20;;;3.87;;
20181;SDS011;10250;50.756;6.172;2023-02-13T01:43:00;14.47;;;4.10;;
20181;SDS011;10250;50.756;6.172;2023-02-13T01:45:03;15.50;;;4.07;;
20181;SDS011;10250;50.756;6.172;2023-02-13T01:47:04;12.60;;;3.20;;
20181;SDS011;10250;50.756;6.172;2023-02-13T01:49:09;13.90;;;3.53;;
20181;SDS011;10250;50.756;6.172;2023-02-13T01:51:17;14.40;;;3.20;;
20181;SDS011;10250;50.756;6.172;2023-02-13T01:53:21;14.90;;;3.33;;
20181;SDS011;10250;50.756;6.172;2023-02-13T01:55:24;11.33;;;2.83;;
20181;SDS011;10250;50.756;6.172;2023-02-13T01:57:26;15.40;;;3.20;;
20181;SDS011;10250;50.756;6.172;2023-02-13T01:59:30;14.40;;;3.93;;
20181;SDS011;10250;50.756;6.172;2023-02-13T02:01:33;10.17;;;2.80;;
20181;SDS011;10250;50.756;6.172;2023-02-13T02:03:45;14.23;;;3.73;;
20181;SDS011;10250;50.756;6.172;2023-02-13T02:05:47;14.13;;;2.90;;
20181;SDS011;10250;50.756;6.172;2023-02-13T02:07:49;13.10;;;3.43;;
20181;SDS011;10250;50.756;6.172;2023-02-13T02:09:51;17.63;;;4.13;;
20181;SDS011;10250;50.756;6.172;2023-02-13T02:13:57;13.80;;;3.47;;
20181;SDS011;10250;50.756;6.172;2023-02-13T02:15:58;13.67;;;3.57;;
20181;SDS011;10250;50.756;6.172;2023-02-13T02:17:59;11.10;;;2.97;;
20181;SDS011;10250;50.756;6.172;2023-02-13T02:28:47;14.37;;;3.57;;
20181;SDS011;10250;50.756;6.172;2023-02-13T02:33:36;12.47;;;3.47;;
20181;SDS011;10250;50.756;6.172;2023-02-13T02:35:48;15.13;;;3.63;;
20181;SDS011;10250;50.756;6.172;2023-02-13T02:38:07;14.10;;;3.37;;
20181;SDS011;10250;50.756;6.172;2023-02-13T02:42:17;12.27;;;3.10;;
20181;SDS011;10250;50.756;6.172;2023-02-13T02:46:37;14.13;;;3.73;;
20181;SDS011;10250;50.756;6.172;2023-02-13T02:49:06;15.63;;;3.47;;
20181;SDS011;10250;50.756;6.172;2023-02-13T02:57:46;13.07;;;3.70;;
20181;SDS011;10250;50.756;6.172;2023-02-13T03:00:06;12.33;;;3.07;;
20181;SDS011;10250;50.756;6.172;2023-02-13T03:02:27;12.40;;;2.93;;
20181;SDS011;10250;50.756;6.172;2023-02-13T03:04:48;14.17;;;3.40;;
20181;SDS011;10250;50.756;6.172;2023-02-13T03:07:10;13.37;;;3.07;;
20181;SDS011;10250;50.756;6.172;2023-02-13T03:09:15;10.27;;;2.87;;
20181;SDS011;10250;50.756;6.172;2023-02-13T03:11:44;15.93;;;3.60;;
20181;SDS011;10250;50.756;6.172;2023-02-13T03:14:06;13.87;;;3.17;;
20181;SDS011;10250;50.756;6.172;2023-02-13T03:16:10;15.53;;;3.20;;
20181;SDS011;10250;50.756;6.172;2023-02-13T03:18:31;14.53;;;3.00;;
20181;SDS011;10250;50.756;6.172;2023-02-13T03:20:54;10.73;;;2.60;;
20181;SDS011;10250;50.756;6.172;2023-02-13T03:23:14;13.67;;;3.47;;
20181;SDS011;10250;50.756;6.172;2023-02-13T03:30:01;12.83;;;3.13;;
20181;SDS011;10250;50.756;6.172;2023-02-13T03:34:16;9.87;;;2.63;;
20181;SDS011;10250;50.756;6.172;2023-02-13T03:39:05;9.40;;;2.17;;
20181;SDS011;10250;50.756;6.172;2023-02-13T03:41:11;8.77;;;2.60;;
20181;SDS011;10250;50.756;6.172;2023-02-13T03:43:18;8.60;;;2.50;;
20181;SDS011;10250;50.756;6.172;2023-02-13T03:45:21;9.57;;;2.53;;
20181;SDS011;10250;50.756;6.172;2023-02-13T03:47:42;11.27;;;3.00;;
20181;SDS011;10250;50.756;6.172;2023-02-13T03:49:45;12.40;;;2.77;;
20181;SDS011;10250;50.756;6.172;2023-02-13T03:52:18;12.67;;;2.67;;
20181;SDS011;10250;50.756;6.172;2023-02-13T03:54:24;10.17;;;2.33;;
20181;SDS011;10250;50.756;6.172;2023-02-13T03:56:44;8.27;;;2.20;;
20181;SDS011;10250;50.756;6.172;2023-02-13T03:59:05;10.90;;;2.47;;
20181;SDS011;10250;50.756;6.172;2023-02-13T04:01:16;8.20;;;2.30;;
20181;SDS011;10250;50.756;6.172;2023-02-13T04:03:21;11.57;;;2.50;;
20181;SDS011;10250;50.756;6.172;2023-02-13T04:05:24;8.00;;;2.00;;
20181;SDS011;10250;50.756;6.172;2023-02-13T04:07:26;12.20;;;2.60;;
20181;SDS011;10250;50.756;6.172;2023-02-13T04:09:31;12.67;;;2.60;;
20181;SDS011;10250;50.756;6.172;2023-02-13T04:11:38;8.57;;;1.93;;
20181;SDS011;10250;50.756;6.172;2023-02-13T04:13:42;8.63;;;2.10;;
20181;SDS011;10250;50.756;6.172;2023-02-13T04:15:49;8.10;;;2.10;;
20181;SDS011;10250;50.756;6.172;2023-02-13T04:17:52;9.67;;;2.43;;
20181;SDS011;10250;50.756;6.172;2023-02-13T04:19:55;9.10;;;2.63;;
20181;SDS011;10250;50.756;6.172;2023-02-13T04:21:56;8.13;;;2.10;;
20181;SDS011;10250;50.756;6.172;2023-02-13T04:23:58;9.13;;;2.20;;
20181;SDS011;10250;50.756;6.172;2023-02-13T04:26:00;7.13;;;1.73;;
20181;SDS011;10250;50.756;6.172;2023-02-13T04:28:02;7.47;;;2.00;;
20181;SDS011;10250;50.756;6.172;2023-02-13T04:30:03;10.13;;;2.27;;
20181;SDS011;10250;50.756;6.172;2023-02-13T04:32:04;10.63;;;2.10;;
20181;SDS011;10250;50.756;6.172;2023-02-13T04:34:05;8.20;;;1.93;;
20181;SDS011;10250;50.756;6.172;2023-02-13T04:36:06;8.83;;;2.17;;
20181;SDS011;10250;50.756;6.172;2023-02-13T04:38:07;6.63;;;1.70;;
20181;SDS011;10250;50.756;6.172;2023-02-13T04:40:08;9.83;;;2.17;;
20181;SDS011;10250;50.756;6.172;2023-02-13T04:42:09;7.60;;;1.70;;
20181;SDS011;10250;50.756;6.172;2023-02-13T04:44:10;4.50;;;1.47;;
20181;SDS011;10250;50.756;6.172;2023-02-13T04:46:11;6.93;;;1.70;;
20181;SDS011;10250;50.756;6.172;2023-02-13T04:48:12;8.07;;;2.07;;
20181;SDS011;10250;50.756;6.172;2023-02-13T04:50:13;9.37;;;1.90;;
20181;SDS011;10250;50.756;6.172;2023-02-13T04:52:14;7.83;;;2.07;;
20181;SDS011;10250;50.756;6.172;2023-02-13T04:54:15;6.63;;;1.77;;
20181;SDS011;10250;50.756;6.172;2023-02-13T04:56:16;9.43;;;2.20;;
20181;SDS011;10250;50.756;6.172;2023-02-13T04:58:17;9.03;;;1.93;;
20181;SDS011;10250;50.756;6.172;2023-02-13T05:00:19;8.60;;;2.23;;
20181;SDS011;10250;50.756;6.172;2023-02-13T05:02:20;9.67;;;2.10;;
20181;SDS011;10250;50.756;6.172;2023-02-13T05:04:21;7.53;;;2.20;;
20181;SDS011;10250;50.756;6.172;2023-02-13T05:06:22;8.07;;;2.40;;
20181;SDS011;10250;50.756;6.172;2023-02-13T05:08:23;8.33;;;2.13;;
20181;SDS011;10250;50.756;6.172;2023-02-13T05:10:24;7.93;;;2.00;;
20181;SDS011;10250;50.756;6.172;2023-02-13T05:12:25;5.93;;;1.83;;
20181;SDS011;10250;50.756;6.172;2023-02-13T05:14:26;8.33;;;2.47;;
20181;SDS011;10250;50.756;6.172;2023-02-13T05:16:27;6.73;;;1.70;;
20181;SDS011;10250;50.756;6.172;2023-02-13T05:18:28;6.97;;;1.90;;
20181;SDS011;10250;50.756;6.172;2023-02-13T05:20:29;8.43;;;1.90;;
20181;SDS011;10250;50.756;6.172;2023-02-13T05:22:30;7.20;;;1.90;;
20181;SDS011;10250;50.756;6.172;2023-02-13T05:24:50;7.17;;;1.80;;
20181;SDS011;10250;50.756;6.172;2023-02-13T05:26:51;8.10;;;2.10;;
20181;SDS011;10250;50.756;6.172;2023-02-13T05:28:52;8.30;;;2.13;;
20181;SDS011;10250;50.756;6.172;2023-02-13T05:31:11;6.23;;;1.47;;
20181;SDS011;10250;50.756;6.172;2023-02-13T05:33:12;6.13;;;1.60;;
20181;SDS011;10250;50.756;6.172;2023-02-13T05:35:13;7.70;;;1.97;;
20181;SDS011;10250;50.756;6.172;2023-02-13T05:37:14;8.23;;;1.70;;
20181;SDS011;10250;50.756;6.172;2023-02-13T05:39:15;7.30;;;1.57;;
20181;SDS011;10250;50.756;6.172;2023-02-13T05:41:16;7.37;;;1.40;;
20181;SDS011;10250;50.756;6.172;2023-02-13T05:43:18;5.40;;;1.50;;
20181;SDS011;10250;50.756;6.172;2023-02-13T05:45:19;8.37;;;2.40;;
20181;SDS011;10250;50.756;6.172;2023-02-13T05:47:20;4.40;;;1.20;;
20181;SDS011;10250;50.756;6.172;2023-02-13T05:49:21;4.93;;;1.60;;
20181;SDS011;10250;50.756;6.172;2023-02-13T05:51:22;7.17;;;1.93;;
20181;SDS011;10250;50.756;6.172;2023-02-13T05:53:23;6.57;;;1.50;;
20181;SDS011;10250;50.756;6.172;2023-02-13T05:55:24;7.23;;;1.70;;
20181;SDS011;10250;50.756;6.172;2023-02-13T05:57:25;9.43;;;2.40;;
20181;SDS011;10250;50.756;6.172;2023-02-13T05:59:26;7.37;;;2.00;;
20181;SDS011;10250;50.756;6.172;2023-02-13T06:01:27;5.20;;;1.47;;
20181;SDS011;10250;50.756;6.172;2023-02-13T06:03:29;7.63;;;1.80;;
20181;SDS011;10250;50.756;6.172;2023-02-13T06:05:30;4.57;;;1.40;;
20181;SDS011;10250;50.756;6.172;2023-02-13T06:07:31;6.97;;;1.70;;
20181;SDS011;10250;50.756;6.172;2023-02-13T06:09:32;4.07;;;1.17;;
20181;SDS011;10250;50.756;6.172;2023-02-13T06:11:33;10.47;;;2.13;;
20181;SDS011;10250;50.756;6.172;2023-02-13T06:13:34;6.97;;;1.87;;
20181;SDS011;10250;50.756;6.172;2023-02-13T06:15:35;5.00;;;1.40;;
20181;SDS011;10250;50.756;6.172;2023-02-13T06:17:36;6.60;;;1.60;;
20181;SDS011;10250;50.756;6.172;2023-02-13T06:19:37;7.40;;;1.80;;
20181;SDS011;10250;50.756;6.172;2023-02-13T06:21:38;7.93;;;1.83;;
20181;SDS011;10250;50.756;6.172;2023-02-13T06:23:39;7.63;;;1.73;;
20181;SDS011;10250;50.756;6.172;2023-02-13T06:25:40;8.33;;;2.00;;
20181;SDS011;10250;50.756;6.172;2023-02-13T06:27:41;5.77;;;1.47;;
20181;SDS011;10250;50.756;6.172;2023-02-13T06:29:42;6.47;;;1.67;;
20181;SDS011;10250;50.756;6.172;2023-02-13T06:31:43;3.97;;;1.23;;
20181;SDS011;10250;50.756;6.172;2023-02-13T06:33:44;6.80;;;1.47;;
20181;SDS011;10250;50.756;6.172;2023-02-13T06:35:45;6.73;;;1.80;;
20181;SDS011;10250;50.756;6.172;2023-02-13T06:37:46;7.90;;;1.87;;
20181;SDS011;10250;50.756;6.172;2023-02-13T06:39:47;6.60;;;1.50;;
20181;SDS011;10250;50.756;6.172;2023-02-13T06:41:48;5.30;;;1.53;;
20181;SDS011;10250;50.756;6.172;2023-02-13T06:43:49;6.90;;;1.73;;
20181;SDS011;10250;50.756;6.172;2023-02-13T06:45:50;4.87;;;1.60;;
20181;SDS011;10250;50.756;6.172;2023-02-13T06:47:52;6.07;;;1.40;;
20181;SDS011;10250;50.756;6.172;2023-02-13T06:49:53;6.60;;;1.77;;
20181;SDS011;10250;50.756;6.172;2023-02-13T06:51:54;7.97;;;1.70;;
20181;SDS011;10250;50.756;6.172;2023-02-13T06:53:55;5.20;;;1.60;;
20181;SDS011;10250;50.756;6.172;2023-02-13T06:55:56;6.10;;;1.73;;
20181;SDS011;10250;50.756;6.172;2023-02-13T06:57:57;7.33;;;1.47;;
20181;SDS011;10250;50.756;6.172;2023-02-13T06:59:59;5.73;;;1.80;;
20181;SDS011;10250;50.756;6.172;2023-02-13T07:02:04;6.43;;;1.60;;
20181;SDS011;10250;50.756;6.172;2023-02-13T07:04:05;6.83;;;1.80;;
20181;SDS011;10250;50.756;6.172;2023-02-13T07:06:06;4.77;;;1.33;;
20181;SDS011;10250;50.756;6.172;2023-02-13T07:08:11;7.60;;;1.63;;
20181;SDS011;10250;50.756;6.172;2023-02-13T07:10:12;4.17;;;1.30;;
20181;SDS011;10250;50.756;6.172;2023-02-13T07:12:13;8.33;;;1.67;;
20181;SDS011;10250;50.756;6.172;2023-02-13T07:14:14;7.70;;;1.87;;
20181;SDS011;10250;50.756;6.172;2023-02-13T07:16:15;5.50;;;1.40;;
20181;SDS011;10250;50.756;6.172;2023-02-13T07:18:16;5.47;;;1.57;;
20181;SDS011;10250;50.756;6.172;2023-02-13T07:20:17;5.13;;;1.60;;
20181;SDS011;10250;50.756;6.172;2023-02-13T07:22:18;5.33;;;1.53;;
20181;SDS011;10250;50.756;6.172;2023-02-13T07:24:19;6.27;;;1.60;;
20181;SDS011;10250;50.756;6.172;2023-02-13T07:26:20;6.27;;;1.80;;
20181;SDS011;10250;50.756;6.172;2023-02-13T07:28:21;4.33;;;1.33;;
20181;SDS011;10250;50.756;6.172;2023-02-13T07:30:22;10.50;;;2.60;;
20181;SDS011;10250;50.756;6.172;2023-02-13T07:32:23;11.37;;;2.90;;
20181;SDS011;10250;50.756;6.172;2023-02-13T07:34:25;8.67;;;2.40;;
20181;SDS011;10250;50.756;6.172;2023-02-13T07:36:26;13.40;;;2.53;;
20181;SDS011;10250;50.756;6.172;2023-02-13T07:38:28;5.67;;;2.00;;
20181;SDS011;10250;50.756;6.172;2023-02-13T07:40:29;8.77;;;2.00;;
20181;SDS011;10250;50.756;6.172;2023-02-13T07:42:33;8.60;;;1.93;;
20181;SDS011;10250;50.756;6.172;2023-02-13T07:44:34;8.07;;;1.90;;
20181;SDS011;10250;50.756;6.172;2023-02-13T07:46:36;8.07;;;2.03;;
20181;SDS011;10250;50.756;6.172;2023-02-13T07:48:37;6.80;;;1.93;;
20181;SDS011;10250;50.756;6.172;2023-02-13T07:50:38;6.77;;;1.70;;
20181;SDS011;10250;50.756;6.172;2023-02-13T07:52:39;3.80;;;1.47;;
20181;SDS011;10250;50.756;6.172;2023-02-13T07:54:40;7.30;;;2.00;;
20181;SDS011;10250;50.756;6.172;2023-02-13T07:56:47;7.53;;;1.80;;
20181;SDS011;10250;50.756;6.172;2023-02-13T07:58:48;7.50;;;1.60;;
20181;SDS011;10250;50.756;6.172;2023-02-13T08:00:49;7.70;;;1.70;;
20181;SDS011;10250;50.756;6.172;2023-02-13T08:02:50;6.63;;;1.73;;
20181;SDS011;10250;50.756;6.172;2023-02-13T08:04:51;6.47;;;1.63;;
20181;SDS011;10250;50.756;6.172;2023-02-13T08:06:52;6.23;;;1.87;;
20181;SDS011;10250;50.756;6.172;2023-02-13T08:08:53;2.97;;;1.20;;
20181;SDS011;10250;50.756;6.172;2023-02-13T08:11:25;6.00;;;1.50;;
20181;SDS011;10250;50.756;6.172;2023-02-13T08:13:46;8.37;;;2.10;;
20181;SDS011;10250;50.756;6.172;2023-02-13T08:15:47;6.40;;;1.80;;
20181;SDS011;10250;50.756;6.172;2023-02-13T08:17:48;5.60;;;1.53;;
20181;SDS011;10250;50.756;6.172;2023-02-13T08:19:49;7.00;;;2.03;;
20181;SDS011;10250;50.756;6.172;2023-02-13T08:21:50;14.40;;;2.43;;
20181;SDS011;10250;50.756;6.172;2023-02-13T08:23:51;6.87;;;1.90;;
20181;SDS011;10250;50.756;6.172;2023-02-13T08:25:52;7.83;;;1.90;;
20181;SDS011;10250;50.756;6.172;2023-02-13T08:27:53;7.57;;;1.57;;
20181;SDS011;10250;50.756;6.172;2023-02-13T08:29:55;8.38;;;2.00;;
20181;SDS011;10250;50.756;6.172;2023-02-13T08:31:56;6.13;;;1.80;;
20181;SDS011;10250;50.756;6.172;2023-02-13T08:33:57;7.07;;;1.40;;
20181;SDS011;10250;50.756;6.172;2023-02-13T08:35:58;6.23;;;1.57;;
20181;SDS011;10250;50.756;6.172;2023-02-13T08:38:02;7.47;;;2.00;;
20181;SDS011;10250;50.756;6.172;2023-02-13T08:40:04;5.80;;;1.50;;
20181;SDS011;10250;50.756;6.172;2023-02-13T08:42:05;5.37;;;1.50;;
20181;SDS011;10250;50.756;6.172;2023-02-13T08:44:06;9.27;;;2.43;;
20181;SDS011;10250;50.756;6.172;2023-02-13T08:46:07;9.73;;;2.33;;
20181;SDS011;10250;50.756;6.172;2023-02-13T08:48:08;7.73;;;1.90;;
20181;SDS011;10250;50.756;6.172;2023-02-13T08:50:09;11.20;;;2.43;;
20181;SDS011;10250;50.756;6.172;2023-02-13T08:52:10;7.67;;;2.33;;
20181;SDS011;10250;50.756;6.172;2023-02-13T08:54:11;9.37;;;2.07;;
20181;SDS011;10250;50.756;6.172;2023-02-13T08:56:13;9.83;;;2.40;;
20181;SDS011;10250;50.756;6.172;2023-02-13T08:58:14;9.07;;;2.27;;
20181;SDS011;10250;50.756;6.172;2023-02-13T09:00:15;8.47;;;2.17;;
20181;SDS011;10250;50.756;6.172;2023-02-13T09:02:16;9.30;;;2.00;;
20181;SDS011;10250;50.756;6.172;2023-02-13T09:04:17;10.47;;;2.43;;
20181;SDS011;10250;50.756;6.172;2023-02-13T09:06:18;8.63;;;2.00;;
20181;SDS011;10250;50.756;6.172;2023-02-13T09:08:19;7.53;;;2.07;;
20181;SDS011;10250;50.756;6.172;2023-02-13T09:10:20;9.23;;;2.27;;
20181;SDS011;10250;50.756;6.172;2023-02-13T09:12:21;7.20;;;1.80;;
20181;SDS011;10250;50.756;6.172;2023-02-13T09:14:22;9.03;;;2.60;;
20181;SDS011;10250;50.756;6.172;2023-02-13T09:16:23;8.10;;;2.20;;
20181;SDS011;10250;50.756;6.172;2023-02-13T09:18:24;9.87;;;2.30;;
20181;SDS011;10250;50.756;6.172;2023-02-13T09:20:25;11.63;;;2.27;;
20181;SDS011;10250;50.756;6.172;2023-02-13T09:22:27;11.70;;;2.50;;
20181;SDS011;10250;50.756;6.172;2023-02-13T09:24:28;9.70;;;2.37;;
20181;SDS011;10250;50.756;6.172;2023-02-13T09:26:29;8.93;;;2.53;;
20181;SDS011;10250;50.756;6.172;2023-02-13T09:28:31;10.10;;;2.20;;
20181;SDS011;10250;50.756;6.172;2023-02-13T09:30:32;10.13;;;2.70;;
20181;SDS011;10250;50.756;6.172;2023-02-13T09:32:34;8.30;;;2.23;;
20181;SDS011;10250;50.756;6.172;2023-02-13T09:34:35;8.97;;;2.20;;
20181;SDS011;10250;50.756;6.172;2023-02-13T09:36:35;10.00;;;2.33;;
20181;SDS011;10250;50.756;6.172;2023-02-13T09:38:36;10.03;;;3.03;;
20181;SDS011;10250;50.756;6.172;2023-02-13T09:40:42;11.50;;;3.03;;
20181;SDS011;10250;50.756;6.172;2023-02-13T09:42:45;8.13;;;2.40;;
20181;SDS011;10250;50.756;6.172;2023-02-13T09:44:46;11.93;;;3.07;;
20181;SDS011;10250;50.756;6.172;2023-02-13T09:46:48;8.33;;;2.33;;
20181;SDS011;10250;50.756;6.172;2023-02-13T09:48:50;11.07;;;3.00;;
20181;SDS011;10250;50.756;6.172;2023-02-13T09:50:52;11.13;;;2.47;;
20181;SDS011;10250;50.756;6.172;2023-02-13T09:52:54;14.10;;;3.27;;
20181;SDS011;10250;50.756;6.172;2023-02-13T09:54:55;11.97;;;3.30;;
20181;SDS011;10250;50.756;6.172;2023-02-13T10:01:22;12.20;;;3.47;;
20181;SDS011;10250;50.756;6.172;2023-02-13T10:09:30;12.00;;;3.20;;
20181;SDS011;10250;50.756;6.172;2023-02-13T10:14:00;12.37;;;3.13;;
20181;SDS011;10250;50.756;6.172;2023-02-13T10:18:09;11.30;;;3.20;;
20181;SDS011;10250;50.756;6.172;2023-02-13T10:20:27;20.57;;;3.23;;
20181;SDS011;10250;50.756;6.172;2023-02-13T10:22:29;9.57;;;2.60;;
20181;SDS011;10250;50.756;6.172;2023-02-13T10:24:39;10.80;;;2.47;;
20181;SDS011;10250;50.756;6.172;2023-02-13T10:26:41;13.30;;;3.03;;
20181;SDS011;10250;50.756;6.172;2023-02-13T10:28:48;11.30;;;2.70;;
20181;SDS011;10250;50.756;6.172;2023-02-13T10:31:16;9.53;;;2.67;;
20181;SDS011;10250;50.756;6.172;2023-02-13T10:33:20;8.00;;;2.27;;
20181;SDS011;10250;50.756;6.172;2023-02-13T10:35:26;9.73;;;2.60;;
20181;SDS011;10250;50.756;6.172;2023-02-13T10:37:28;9.23;;;2.60;;
20181;SDS011;10250;50.756;6.172;2023-02-13T10:39:30;12.20;;;3.20;;
20181;SDS011;10250;50.756;6.172;2023-02-13T10:41:47;8.83;;;2.30;;
20181;SDS011;10250;50.756;6.172;2023-02-13T10:43:55;13.60;;;3.50;;
20181;SDS011;10250;50.756;6.172;2023-02-13T10:46:45;10.07;;;2.60;;
20181;SDS011;10250;50.756;6.172;2023-02-13T10:48:54;9.67;;;2.43;;
20181;SDS011;10250;50.756;6.172;2023-02-13T11:01:56;11.80;;;2.70;;
20181;SDS011;10250;50.756;6.172;2023-02-13T11:06:04;11.50;;;2.70;;
20181;SDS011;10250;50.756;6.172;2023-02-13T11:08:19;9.77;;;2.73;;
20181;SDS011;10250;50.756;6.172;2023-02-13T11:10:21;9.97;;;2.50;;
20181;SDS011;10250;50.756;6.172;2023-02-13T11:14:25;10.53;;;2.83;;
20181;SDS011;10250;50.756;6.172;2023-02-13T11:16:27;12.07;;;3.00;;
20181;SDS011;10250;50.756;6.172;2023-02-13T11:18:38;13.00;;;3.10;;
20181;SDS011;10250;50.756;6.172;2023-02-13T11:20:41;12.47;;;3.43;;
20181;SDS011;10250;50.756;6.172;2023-02-13T11:22:43;10.70;;;2.80;;
20181;SDS011;10250;50.756;6.172;2023-02-13T11:24:52;10.50;;;2.60;;
20181;SDS011;10250;50.756;6.172;2023-02-13T11:26:56;9.83;;;2.70;;
20181;SDS011;10250;50.756;6.172;2023-02-13T11:29:21;13.17;;;3.20;;
20181;SDS011;10250;50.756;6.172;2023-02-13T11:31:29;10.20;;;2.40;;
20181;SDS011;10250;50.756;6.172;2023-02-13T11:33:31;9.30;;;2.33;;
20181;SDS011;10250;50.756;6.172;2023-02-13T11:35:33;15.13;;;3.07;;
20181;SDS011;10250;50.756;6.172;2023-02-13T11:37:34;9.90;;;2.40;;
20181;SDS011;10250;50.756;6.172;2023-02-13T11:39:35;14.80;;;3.30;;
20181;SDS011;10250;50.756;6.172;2023-02-13T11:41:38;12.67;;;2.70;;
20181;SDS011;10250;50.756;6.172;2023-02-13T11:43:46;9.17;;;2.27;;
20181;SDS011;10250;50.756;6.172;2023-02-13T11:45:59;10.73;;;2.73;;
20181;SDS011;10250;50.756;6.172;2023-02-13T11:48:00;11.43;;;3.00;;
20181;SDS011;10250;50.756;6.172;2023-02-13T11:54:44;12.17;;;3.00;;
20181;SDS011;10250;50.756;6.172;2023-02-13T11:56:49;11.27;;;2.90;;
20181;SDS011;10250;50.756;6.172;2023-02-13T11:58:57;12.53;;;2.97;;
20181;SDS011;10250;50.756;6.172;2023-02-13T12:09:22;10.53;;;2.37;;
20181;SDS011;10250;50.756;6.172;2023-02-13T12:13:26;11.17;;;2.90;;
20181;SDS011;10250;50.756;6.172;2023-02-13T12:15:30;8.97;;;2.40;;
20181;SDS011;10250;50.756;6.172;2023-02-13T12:17:32;12.03;;;2.80;;
20181;SDS011;10250;50.756;6.172;2023-02-13T12:23:54;12.30;;;2.97;;
20181;SDS011;10250;50.756;6.172;2023-02-13T12:26:16;13.03;;;3.60;;
20181;SDS011;10250;50.756;6.172;2023-02-13T12:28:21;13.67;;;3.70;;
20181;SDS011;10250;50.756;6.172;2023-02-13T12:37:18;13.83;;;3.10;;
20181;SDS011;10250;50.756;6.172;2023-02-13T12:39:30;13.60;;;3.80;;
20181;SDS011;10250;50.756;6.172;2023-02-13T12:48:14;11.63;;;3.07;;
20181;SDS011;10250;50.756;6.172;2023-02-13T12:54:44;12.13;;;3.13;;
20181;SDS011;10250;50.756;6.172;2023-02-13T12:59:00;11.77;;;3.23;;
20181;SDS011;10250;50.756;6.172;2023-02-13T13:15:54;11.07;;;3.10;;
20181;SDS011;10250;50.756;6.172;2023-02-13T13:20:19;13.90;;;3.23;;
20181;SDS011;10250;50.756;6.172;2023-02-13T13:26:42;11.40;;;2.70;;
20181;SDS011;10250;50.756;6.172;2023-02-13T13:28:45;10.77;;;2.63;;
20181;SDS011;10250;50.756;6.172;2023-02-13T13:30:47;12.40;;;2.93;;
20181;SDS011;10250;50.756;6.172;2023-02-13T13:35:18;11.20;;;3.00;;
20181;SDS011;10250;50.756;6.172;2023-02-13T13:44:35;12.07;;;3.07;;
20181;SDS011;10250;50.756;6.172;2023-02-13T13:51:08;12.60;;;3.13;;
20181;SDS011;10250;50.756;6.172;2023-02-13T13:53:16;10.90;;;3.33;;
20181;SDS011;10250;50.756;6.172;2023-02-13T14:01:59;14.73;;;3.53;;
20181;SDS011;10250;50.756;6.172;2023-02-13T14:14:57;16.20;;;4.23;;
20181;SDS011;10250;50.756;6.172;2023-02-13T14:17:01;12.93;;;3.37;;
20181;SDS011;10250;50.756;6.172;2023-02-13T14:19:03;15.13;;;3.40;;
20181;SDS011;10250;50.756;6.172;2023-02-13T14:21:04;16.17;;;4.70;;
20181;SDS011;10250;50.756;6.172;2023-02-13T14:23:07;18.50;;;4.80;;
20181;SDS011;10250;50.756;6.172;2023-02-13T14:25:20;12.93;;;4.00;;
20181;SDS011;10250;50.756;6.172;2023-02-13T14:27:27;16.57;;;4.63;;
20181;SDS011;10250;50.756;6.172;2023-02-13T14:29:30;15.23;;;4.50;;
20181;SDS011;10250;50.756;6.172;2023-02-13T14:31:35;15.60;;;4.63;;
20181;SDS011;10250;50.756;6.172;2023-02-13T14:33:40;23.83;;;4.83;;
20181;SDS011;10250;50.756;6.172;2023-02-13T14:35:41;14.33;;;4.13;;
20181;SDS011;10250;50.756;6.172;2023-02-13T14:37:49;13.67;;;4.10;;
20181;SDS011;10250;50.756;6.172;2023-02-13T14:42:27;13.77;;;4.43;;
20181;SDS011;10250;50.756;6.172;2023-02-13T14:46:33;15.77;;;4.83;;
20181;SDS011;10250;50.756;6.172;2023-02-13T14:50:54;14.67;;;4.00;;
20181;SDS011;10250;50.756;6.172;2023-02-13T14:52:56;15.77;;;5.00;;
20181;SDS011;10250;50.756;6.172;2023-02-13T14:55:02;14.17;;;4.33;;
20181;SDS011;10250;50.756;6.172;2023-02-13T14:57:27;16.63;;;5.17;;
20181;SDS011;10250;50.756;6.172;2023-02-13T14:59:29;13.77;;;3.83;;
20181;SDS011;10250;50.756;6.172;2023-02-13T15:01:34;15.13;;;4.33;;
20181;SDS011;10250;50.756;6.172;2023-02-13T15:05:40;16.17;;;5.07;;
20181;SDS011;10250;50.756;6.172;2023-02-13T15:07:44;17.73;;;5.00;;